NCAR-RAP Real-Time Weather Data

Output produced by METARs form (12 August 2020  18:01 UTC)
found at http://weather.rap.ucar.edu/surface/
 
KLAX 121653Z 28007KT 9SM BCFG SCT009 19/15 A2992 RMK A02 SLP131 VIS SW-W 1 T01940150
KLAX 121553Z 26004KT 9SM SCT009 19/16 A2992 RMK A02 SLP129 T01890156
KLAX 121453Z 17003KT 8SM SCT007 SCT250 18/15 A2991 RMK A02 SLP126 T01830150 53010
KLAX 121353Z 00000KT 8SM FEW005 SCT009 SCT250 17/14 A2989 RMK A02 SLP121 T01670144
KLAX 121253Z 32004KT 9SM FEW004 FEW007 SCT250 16/14 A2988 RMK SLP117 T01610139
KLAX 121153Z 00000KT 10SM FEW006 16/13 A2988 RMK SLP116 T01560133 10167 20156 56002
KLAX 121053Z 02003KT 10SM FEW007 16/14 A2988 RMK SLP116 T01610139
KLAX 120953Z 35003KT 10SM FEW007 FEW010 16/14 A2988 RMK SLP114 T01610144
KLAX 120853Z 00000KT 10SM FEW007 FEW010 16/14 A2988 RMK SLP118 T01560139 58006 $
KLAX 120753Z 18003KT 10SM FEW009 17/14 A2990 RMK SLP124 T01670144 402060156 $
KLAX 120653Z COR 00000KT 10SM FEW011 17/14 A2990 RMK SLP124 T01670139 $
KLAX 120553Z 26006KT 10SM FEW014 17/14 A2990 RMK SLP124 T01670139 10206 20167 51015 $
KLAX 120453Z 24006KT 10SM SKC 17/14 A2990 RMK SLP124 T01720139
KLAX 120353Z 26010KT 10SM SKC 17/14 A2988 RMK SLP117 T01720144
KLAX 120253Z 25010KT 10SM SKC 17/14 A2986 RMK SLP110 T01720139 56009
KLAX 120153Z 25012KT 10SM FEW009 18/14 A2986 RMK SLP110 T01830139
KLAX 120053Z 27011KT 10SM FEW009 19/14 A2987 RMK SLP114 T01890144
KLAX 112353Z 25013KT 10SM FEW009 19/14 A2988 RMK SLP119 T01940139 10206 20178 56018
KLAX 112253Z 26016KT 10SM FEW009 FEW050 20/13 A2990
KLAX 112153Z 27014KT 10SM FEW009 FEW050 20/13 A2991 RMK AO2 SLP128 T02000133
KLAX 112053Z 28012KT 10SM SCT009 19/13 A2994 RMK AO2 SLP136 T01940133 58004
KLAX 112013Z 26011KT 10SM SCT009 19/13 A2995 RMK AO2 SCT V BKN T01890133
KLAX 111953Z 27013KT 10SM BKN009 19/13 A2996 RMK AO2 SLP143 BKN V SCT T01890133
KLAX 111913Z 25011KT 10SM BKN009 18/13 A2995 RMK AO2 BKN V SCT T01830133
KLAX 111853Z 26013KT 10SM SCT010 18/13 A2995 RMK AO2 SLP142 SCT V BKN T01830128
KLAX 111753Z 26010KT 9SM SCT008 18/13 A2995 RMK AO2 SLP141 T01780128 10183 20156 53003
KLAX 111653Z 26009KT 8SM SCT009 18/13 A2994 RMK AO2 SLP138 T01780133
KLAX 111610Z 25007KT 8SM SCT008 18/14 A2995 RMK AO2 SCT V BKN T01780139
KLAX 111553Z 23007KT 7SM BKN008 17/14 A2995 RMK AO2 SLP139 BKN V SCT T01720144
KLAX 111453Z VRB06KT 7SM BKN008 17/14 A2994 RMK AO2 SLP138 T01670139 53009
KLAX 111353Z 24006KT 7SM BKN008 16/14 A2993 RMK AO2 SLP132 T01560139
KLAX 111253Z 24003KT 7SM OVC008 16/14 A2991 RMK AO2 SLP128 CIG 007V009 T01610139
KLAX 111153Z 25003KT 9SM BKN008 16/14 A2991 RMK AO2 SLP127 T01610139 10172 20161 56003
KLAX 111053Z 18004KT 10SM BKN009 16/14 A2992 RMK AO2 SLP128 T01610144
KLAX 110959Z COR 24005KT 10SM BKN009 16/14 A2992 RMK AO2 T01610139
KLAX 110953Z 27005KT 10SM BKN010 16/14 A2992 RMK AO2 SLP128 T01610139
KLAX 110949Z 26005KT 10SM BKN010 16/14 A2992 RMK AO2
KLAX 110935Z 27005KT 10SM SCT010 17/14 A2992 RMK AO2 T01670139
KLAX 110929Z 25005KT 10SM BKN010 16/14 A2992 RMK AO2 T01610139
KLAX 110918Z 25005KT 10SM SCT008 17/14 A2992 RMK AO2 T01670139
KLAX 110853Z 26005KT 10SM OVC008 17/14 A2992 RMK AO2 SLP130 T01670144 50000
KLAX 110753Z 24004KT 10SM BKN008 17/15 A2993 RMK AO2 SLP131 T01670150 402170167
KLAX 110743Z 25005KT 10SM BKN009 17/14 A2992 RMK AO2 T01670144
KLAX 110653Z 24004KT 10SM FEW008 17/14 A2992 RMK AO2 SLP130 T01670144
KLAX 110553Z 24006KT 10SM FEW008 17/14 A2992 RMK AO2 SLP131 T01670144 10206 20167 50010
KLAX 110523Z 26009KT 10SM SCT008 17/14 A2992 RMK AO2 T01720144
KLAX 110453Z 26010KT 10SM BKN008 17/15 A2992 RMK AO2 SLP131 T01720150
KLAX 110447Z 26010KT 10SM BKN008 17/15 A2992 RMK AO2 T01720150
KLAX 110418Z 24008KT 10SM SCT008 17/15 A2991 RMK AO2 T01720150
KLAX 110353Z 23008KT 10SM FEW012 17/14 A2991 RMK AO2 SLP126 T01720144
KLAX 110253Z 27009KT 10SM FEW012 18/14 A2989 RMK AO2 SLP121 T01780144 56005
KLAX 110153Z 26010KT 10SM FEW012 18/14 A2989 RMK AO2 SLP122 T01830144
KLAX 110053Z 26013KT 10SM FEW012 FEW030 19/14 A2990 RMK AO2 SLP124 T01890144
KLAX 102353Z 27016KT 10SM FEW012 FEW050 20/14 A2991 RMK AO2 SLP126 T02000144 10217 20189 56013
KLAX 102253Z 26016KT 10SM FEW012 FEW050 21/14 A2991 RMK AO2 SLP128 T02110144
KLAX 102153Z 26012G19KT 10SM FEW012 FEW050 21/14 A2992 RMK AO2 SLP132 T02110144
KLAX 102053Z 26010KT 10SM FEW014 21/14 A2994 RMK AO2 SLP138 T02060139 58010
KLAX 101953Z 26010KT 10SM FEW013 21/14 A2995 RMK AO2 SLP142 T02060139
KLAX 101853Z 26009KT 10SM FEW012 20/13 A2996 RMK AO2 SLP145 T02000133